sensor_id;sensor_type;location;lat;lon;timestamp;P1;durP1;ratioP1;P2;durP2;ratioP2
27145;SDS011;17980;51.744;7.190;2024-02-16T00:00:27;0.10;;;0.10;;
27145;SDS011;17980;51.744;7.190;2024-02-16T00:03:06;1.33;;;0.50;;
27145;SDS011;17980;51.744;7.190;2024-02-16T00:05:34;0.20;;;0.20;;
27145;SDS011;17980;51.744;7.190;2024-02-16T00:08:02;0.67;;;0.20;;
27145;SDS011;17980;51.744;7.190;2024-02-16T00:10:30;0.10;;;0.10;;
27145;SDS011;17980;51.744;7.190;2024-02-16T00:13:07;0.73;;;0.20;;
27145;SDS011;17980;51.744;7.190;2024-02-16T00:15:34;1.13;;;0.17;;
27145;SDS011;17980;51.744;7.190;2024-02-16T00:18:02;0.33;;;0.27;;
27145;SDS011;17980;51.744;7.190;2024-02-16T00:20:29;0.43;;;0.20;;
27145;SDS011;17980;51.744;7.190;2024-02-16T00:23:06;0.10;;;0.10;;
27145;SDS011;17980;51.744;7.190;2024-02-16T00:25:35;0.33;;;0.10;;
27145;SDS011;17980;51.744;7.190;2024-02-16T00:28:04;0.10;;;0.10;;
27145;SDS011;17980;51.744;7.190;2024-02-16T00:30:31;1.27;;;0.23;;
27145;SDS011;17980;51.744;7.190;2024-02-16T00:32:59;0.67;;;0.17;;
27145;SDS011;17980;51.744;7.190;2024-02-16T00:35:27;0.40;;;0.30;;
27145;SDS011;17980;51.744;7.190;2024-02-16T00:38:04;0.30;;;0.17;;
27145;SDS011;17980;51.744;7.190;2024-02-16T00:40:31;0.10;;;0.10;;
27145;SDS011;17980;51.744;7.190;2024-02-16T00:42:58;0.60;;;0.20;;
27145;SDS011;17980;51.744;7.190;2024-02-16T00:45:26;0.30;;;0.20;;
27145;SDS011;17980;51.744;7.190;2024-02-16T00:48:03;1.30;;;0.30;;
27145;SDS011;17980;51.744;7.190;2024-02-16T00:50:32;0.20;;;0.20;;
27145;SDS011;17980;51.744;7.190;2024-02-16T00:55:36;0.20;;;0.20;;
27145;SDS011;17980;51.744;7.190;2024-02-16T00:58:06;0.87;;;0.20;;
27145;SDS011;17980;51.744;7.190;2024-02-16T01:00:43;0.10;;;0.10;;
27145;SDS011;17980;51.744;7.190;2024-02-16T01:03:10;0.10;;;0.10;;
27145;SDS011;17980;51.744;7.190;2024-02-16T01:05:38;0.17;;;0.10;;
27145;SDS011;17980;51.744;7.190;2024-02-16T01:08:15;0.10;;;0.10;;
27145;SDS011;17980;51.744;7.190;2024-02-16T01:10:43;0.10;;;0.10;;
27145;SDS011;17980;51.744;7.190;2024-02-16T01:13:10;0.10;;;0.10;;
27145;SDS011;17980;51.744;7.190;2024-02-16T01:15:37;0.10;;;0.10;;
27145;SDS011;17980;51.744;7.190;2024-02-16T01:18:15;0.10;;;0.10;;
27145;SDS011;17980;51.744;7.190;2024-02-16T01:20:42;0.20;;;0.20;;
27145;SDS011;17980;51.744;7.190;2024-02-16T01:23:10;0.00;;;0.00;;
27145;SDS011;17980;51.744;7.190;2024-02-16T01:25:37;0.57;;;0.10;;
27145;SDS011;17980;51.744;7.190;2024-02-16T01:28:14;0.20;;;0.20;;
27145;SDS011;17980;51.744;7.190;2024-02-16T01:30:41;0.10;;;0.10;;
27145;SDS011;17980;51.744;7.190;2024-02-16T01:33:09;0.23;;;0.10;;
27145;SDS011;17980;51.744;7.190;2024-02-16T01:35:38;0.10;;;0.10;;
27145;SDS011;17980;51.744;7.190;2024-02-16T01:38:15;0.30;;;0.20;;
27145;SDS011;17980;51.744;7.190;2024-02-16T01:40:43;0.10;;;0.10;;
27145;SDS011;17980;51.744;7.190;2024-02-16T01:43:10;0.77;;;0.20;;
27145;SDS011;17980;51.744;7.190;2024-02-16T01:45:38;0.17;;;0.10;;
27145;SDS011;17980;51.744;7.190;2024-02-16T01:48:15;0.10;;;0.00;;
27145;SDS011;17980;51.744;7.190;2024-02-16T01:50:42;0.47;;;0.40;;
27145;SDS011;17980;51.744;7.190;2024-02-16T01:53:10;0.10;;;0.10;;
27145;SDS011;17980;51.744;7.190;2024-02-16T01:55:38;0.10;;;0.10;;
27145;SDS011;17980;51.744;7.190;2024-02-16T01:58:16;0.10;;;0.10;;
27145;SDS011;17980;51.744;7.190;2024-02-16T02:00:44;5.20;;;0.30;;
27145;SDS011;17980;51.744;7.190;2024-02-16T02:03:11;0.40;;;0.20;;
27145;SDS011;17980;51.744;7.190;2024-02-16T02:05:44;0.17;;;0.10;;
27145;SDS011;17980;51.744;7.190;2024-02-16T02:08:21;0.10;;;0.10;;
27145;SDS011;17980;51.744;7.190;2024-02-16T02:10:48;0.20;;;0.20;;
27145;SDS011;17980;51.744;7.190;2024-02-16T02:13:15;0.20;;;0.20;;
27145;SDS011;17980;51.744;7.190;2024-02-16T02:15:45;0.10;;;0.10;;
27145;SDS011;17980;51.744;7.190;2024-02-16T02:18:22;0.10;;;0.10;;
27145;SDS011;17980;51.744;7.190;2024-02-16T02:20:49;1.93;;;0.20;;
27145;SDS011;17980;51.744;7.190;2024-02-16T02:23:16;0.10;;;0.10;;
27145;SDS011;17980;51.744;7.190;2024-02-16T02:25:44;0.13;;;0.13;;
27145;SDS011;17980;51.744;7.190;2024-02-16T02:28:27;0.63;;;0.20;;
27145;SDS011;17980;51.744;7.190;2024-02-16T02:30:55;0.10;;;0.10;;
27145;SDS011;17980;51.744;7.190;2024-02-16T02:33:22;0.20;;;0.17;;
27145;SDS011;17980;51.744;7.190;2024-02-16T02:35:50;0.20;;;0.20;;
27145;SDS011;17980;51.744;7.190;2024-02-16T02:38:28;0.40;;;0.27;;
27145;SDS011;17980;51.744;7.190;2024-02-16T02:40:56;0.23;;;0.20;;
27145;SDS011;17980;51.744;7.190;2024-02-16T02:43:23;0.17;;;0.17;;
27145;SDS011;17980;51.744;7.190;2024-02-16T02:45:51;0.20;;;0.10;;
27145;SDS011;17980;51.744;7.190;2024-02-16T02:48:28;0.50;;;0.10;;
27145;SDS011;17980;51.744;7.190;2024-02-16T02:50:55;0.50;;;0.20;;
27145;SDS011;17980;51.744;7.190;2024-02-16T02:53:24;0.10;;;0.10;;
27145;SDS011;17980;51.744;7.190;2024-02-16T02:55:54;0.20;;;0.10;;
27145;SDS011;17980;51.744;7.190;2024-02-16T02:58:31;0.97;;;0.20;;
27145;SDS011;17980;51.744;7.190;2024-02-16T03:00:58;0.20;;;0.10;;
27145;SDS011;17980;51.744;7.190;2024-02-16T03:03:25;0.17;;;0.17;;
27145;SDS011;17980;51.744;7.190;2024-02-16T03:05:53;0.10;;;0.10;;
27145;SDS011;17980;51.744;7.190;2024-02-16T03:08:30;0.10;;;0.10;;
27145;SDS011;17980;51.744;7.190;2024-02-16T03:10:57;0.00;;;0.00;;
27145;SDS011;17980;51.744;7.190;2024-02-16T03:13:26;0.10;;;0.10;;
27145;SDS011;17980;51.744;7.190;2024-02-16T03:15:54;0.97;;;0.20;;
27145;SDS011;17980;51.744;7.190;2024-02-16T03:18:31;0.20;;;0.13;;
27145;SDS011;17980;51.744;7.190;2024-02-16T03:20:59;0.20;;;0.20;;
27145;SDS011;17980;51.744;7.190;2024-02-16T03:23:27;1.47;;;0.40;;
27145;SDS011;17980;51.744;7.190;2024-02-16T03:25:54;0.40;;;0.20;;
27145;SDS011;17980;51.744;7.190;2024-02-16T03:28:31;0.07;;;0.07;;
27145;SDS011;17980;51.744;7.190;2024-02-16T03:30:59;0.73;;;0.30;;
27145;SDS011;17980;51.744;7.190;2024-02-16T03:33:27;0.20;;;0.20;;
27145;SDS011;17980;51.744;7.190;2024-02-16T03:35:54;0.10;;;0.10;;
27145;SDS011;17980;51.744;7.190;2024-02-16T03:38:31;0.00;;;0.00;;
27145;SDS011;17980;51.744;7.190;2024-02-16T03:40:59;0.10;;;0.10;;
27145;SDS011;17980;51.744;7.190;2024-02-16T03:43:26;1.17;;;0.10;;
27145;SDS011;17980;51.744;7.190;2024-02-16T03:45:53;0.10;;;0.10;;
27145;SDS011;17980;51.744;7.190;2024-02-16T03:48:30;0.40;;;0.20;;
27145;SDS011;17980;51.744;7.190;2024-02-16T03:50:58;0.17;;;0.10;;
27145;SDS011;17980;51.744;7.190;2024-02-16T03:53:25;0.10;;;0.10;;
27145;SDS011;17980;51.744;7.190;2024-02-16T03:55:53;0.10;;;0.10;;
27145;SDS011;17980;51.744;7.190;2024-02-16T03:58:30;0.20;;;0.20;;
27145;SDS011;17980;51.744;7.190;2024-02-16T04:00:58;0.17;;;0.17;;
27145;SDS011;17980;51.744;7.190;2024-02-16T04:03:26;0.20;;;0.20;;
27145;SDS011;17980;51.744;7.190;2024-02-16T04:05:53;0.30;;;0.20;;
27145;SDS011;17980;51.744;7.190;2024-02-16T04:08:30;0.30;;;0.30;;
27145;SDS011;17980;51.744;7.190;2024-02-16T04:10:58;0.03;;;0.03;;
27145;SDS011;17980;51.744;7.190;2024-02-16T04:13:25;0.10;;;0.10;;
27145;SDS011;17980;51.744;7.190;2024-02-16T04:15:52;0.10;;;0.10;;
27145;SDS011;17980;51.744;7.190;2024-02-16T04:18:29;0.10;;;0.10;;
27145;SDS011;17980;51.744;7.190;2024-02-16T04:20:57;0.00;;;0.00;;
27145;SDS011;17980;51.744;7.190;2024-02-16T04:23:24;0.20;;;0.20;;
27145;SDS011;17980;51.744;7.190;2024-02-16T04:25:51;0.20;;;0.20;;
27145;SDS011;17980;51.744;7.190;2024-02-16T04:28:28;2.00;;;0.37;;
27145;SDS011;17980;51.744;7.190;2024-02-16T04:30:56;0.13;;;0.13;;
27145;SDS011;17980;51.744;7.190;2024-02-16T04:33:23;0.10;;;0.10;;
27145;SDS011;17980;51.744;7.190;2024-02-16T04:35:50;0.87;;;0.33;;
27145;SDS011;17980;51.744;7.190;2024-02-16T04:38:27;0.10;;;0.10;;
27145;SDS011;17980;51.744;7.190;2024-02-16T04:40:54;0.17;;;0.17;;
27145;SDS011;17980;51.744;7.190;2024-02-16T04:43:22;0.57;;;0.30;;
27145;SDS011;17980;51.744;7.190;2024-02-16T04:45:49;0.20;;;0.20;;
27145;SDS011;17980;51.744;7.190;2024-02-16T04:48:26;0.53;;;0.20;;
27145;SDS011;17980;51.744;7.190;2024-02-16T04:50:54;0.10;;;0.10;;
27145;SDS011;17980;51.744;7.190;2024-02-16T04:53:21;0.77;;;0.30;;
27145;SDS011;17980;51.744;7.190;2024-02-16T04:55:49;0.20;;;0.20;;
27145;SDS011;17980;51.744;7.190;2024-02-16T04:58:26;0.10;;;0.10;;
27145;SDS011;17980;51.744;7.190;2024-02-16T05:00:53;0.10;;;0.10;;
27145;SDS011;17980;51.744;7.190;2024-02-16T05:03:20;0.20;;;0.20;;
27145;SDS011;17980;51.744;7.190;2024-02-16T05:05:48;0.53;;;0.40;;
27145;SDS011;17980;51.744;7.190;2024-02-16T05:08:24;0.20;;;0.20;;
27145;SDS011;17980;51.744;7.190;2024-02-16T05:10:52;0.30;;;0.20;;
27145;SDS011;17980;51.744;7.190;2024-02-16T05:13:29;1.70;;;0.30;;
27145;SDS011;17980;51.744;7.190;2024-02-16T05:15:56;0.30;;;0.27;;
27145;SDS011;17980;51.744;7.190;2024-02-16T05:18:33;0.10;;;0.10;;
27145;SDS011;17980;51.744;7.190;2024-02-16T05:21:00;0.03;;;0.03;;
27145;SDS011;17980;51.744;7.190;2024-02-16T05:23:28;0.50;;;0.30;;
27145;SDS011;17980;51.744;7.190;2024-02-16T05:25:55;0.10;;;0.10;;
27145;SDS011;17980;51.744;7.190;2024-02-16T05:28:32;0.83;;;0.20;;
27145;SDS011;17980;51.744;7.190;2024-02-16T05:31:01;0.20;;;0.20;;
27145;SDS011;17980;51.744;7.190;2024-02-16T05:33:32;0.60;;;0.33;;
27145;SDS011;17980;51.744;7.190;2024-02-16T05:35:59;0.10;;;0.10;;
27145;SDS011;17980;51.744;7.190;2024-02-16T05:38:37;0.20;;;0.20;;
27145;SDS011;17980;51.744;7.190;2024-02-16T05:41:07;0.10;;;0.10;;
27145;SDS011;17980;51.744;7.190;2024-02-16T05:43:34;0.83;;;0.30;;
27145;SDS011;17980;51.744;7.190;2024-02-16T05:46:02;0.13;;;0.10;;
27145;SDS011;17980;51.744;7.190;2024-02-16T05:48:39;0.77;;;0.10;;
27145;SDS011;17980;51.744;7.190;2024-02-16T05:51:06;0.20;;;0.20;;
27145;SDS011;17980;51.744;7.190;2024-02-16T05:53:34;0.10;;;0.10;;
27145;SDS011;17980;51.744;7.190;2024-02-16T05:56:02;0.23;;;0.23;;
27145;SDS011;17980;51.744;7.190;2024-02-16T05:58:39;0.57;;;0.30;;
27145;SDS011;17980;51.744;7.190;2024-02-16T06:01:08;1.03;;;0.30;;
27145;SDS011;17980;51.744;7.190;2024-02-16T06:03:37;0.63;;;0.30;;
27145;SDS011;17980;51.744;7.190;2024-02-16T06:06:06;0.20;;;0.20;;
27145;SDS011;17980;51.744;7.190;2024-02-16T06:08:43;0.50;;;0.20;;
27145;SDS011;17980;51.744;7.190;2024-02-16T06:11:11;0.40;;;0.40;;
27145;SDS011;17980;51.744;7.190;2024-02-16T06:13:38;2.60;;;0.40;;
27145;SDS011;17980;51.744;7.190;2024-02-16T06:16:06;1.13;;;0.53;;
27145;SDS011;17980;51.744;7.190;2024-02-16T06:18:49;0.30;;;0.30;;
27145;SDS011;17980;51.744;7.190;2024-02-16T06:21:17;0.30;;;0.30;;
27145;SDS011;17980;51.744;7.190;2024-02-16T06:23:44;0.03;;;0.03;;
27145;SDS011;17980;51.744;7.190;2024-02-16T06:26:12;0.20;;;0.20;;
27145;SDS011;17980;51.744;7.190;2024-02-16T06:28:49;1.60;;;0.30;;
27145;SDS011;17980;51.744;7.190;2024-02-16T06:31:16;0.20;;;0.20;;
27145;SDS011;17980;51.744;7.190;2024-02-16T06:33:44;0.10;;;0.10;;
27145;SDS011;17980;51.744;7.190;2024-02-16T06:36:11;1.77;;;0.47;;
27145;SDS011;17980;51.744;7.190;2024-02-16T06:38:48;0.20;;;0.10;;
27145;SDS011;17980;51.744;7.190;2024-02-16T06:41:17;0.20;;;0.20;;
27145;SDS011;17980;51.744;7.190;2024-02-16T06:43:44;0.40;;;0.20;;
27145;SDS011;17980;51.744;7.190;2024-02-16T06:46:12;0.20;;;0.13;;
27145;SDS011;17980;51.744;7.190;2024-02-16T06:48:49;0.10;;;0.10;;
27145;SDS011;17980;51.744;7.190;2024-02-16T06:51:17;0.33;;;0.30;;
27145;SDS011;17980;51.744;7.190;2024-02-16T06:53:45;0.63;;;0.50;;
27145;SDS011;17980;51.744;7.190;2024-02-16T06:56:12;0.10;;;0.10;;
27145;SDS011;17980;51.744;7.190;2024-02-16T06:58:49;0.20;;;0.10;;
27145;SDS011;17980;51.744;7.190;2024-02-16T07:01:17;0.20;;;0.20;;
27145;SDS011;17980;51.744;7.190;2024-02-16T07:03:44;0.20;;;0.20;;
27145;SDS011;17980;51.744;7.190;2024-02-16T07:06:12;0.77;;;0.40;;
27145;SDS011;17980;51.744;7.190;2024-02-16T07:08:49;1.30;;;0.20;;
27145;SDS011;17980;51.744;7.190;2024-02-16T07:11:16;0.20;;;0.20;;
27145;SDS011;17980;51.744;7.190;2024-02-16T07:13:46;0.83;;;0.37;;
27145;SDS011;17980;51.744;7.190;2024-02-16T07:16:14;0.20;;;0.20;;
27145;SDS011;17980;51.744;7.190;2024-02-16T07:18:51;0.57;;;0.40;;
27145;SDS011;17980;51.744;7.190;2024-02-16T07:21:18;0.60;;;0.40;;
27145;SDS011;17980;51.744;7.190;2024-02-16T07:23:48;0.20;;;0.20;;
27145;SDS011;17980;51.744;7.190;2024-02-16T07:26:15;0.20;;;0.20;;
27145;SDS011;17980;51.744;7.190;2024-02-16T07:28:52;0.17;;;0.17;;
27145;SDS011;17980;51.744;7.190;2024-02-16T07:31:19;0.30;;;0.20;;
27145;SDS011;17980;51.744;7.190;2024-02-16T07:33:47;0.27;;;0.23;;
27145;SDS011;17980;51.744;7.190;2024-02-16T07:36:15;0.40;;;0.37;;
27145;SDS011;17980;51.744;7.190;2024-02-16T07:38:51;0.33;;;0.23;;
27145;SDS011;17980;51.744;7.190;2024-02-16T07:41:19;0.30;;;0.30;;
27145;SDS011;17980;51.744;7.190;2024-02-16T07:43:46;0.30;;;0.30;;
27145;SDS011;17980;51.744;7.190;2024-02-16T07:46:14;1.40;;;0.40;;
27145;SDS011;17980;51.744;7.190;2024-02-16T07:48:51;0.40;;;0.20;;
27145;SDS011;17980;51.744;7.190;2024-02-16T07:51:18;0.20;;;0.20;;
27145;SDS011;17980;51.744;7.190;2024-02-16T07:53:46;1.80;;;0.43;;
27145;SDS011;17980;51.744;7.190;2024-02-16T07:56:14;0.13;;;0.10;;
27145;SDS011;17980;51.744;7.190;2024-02-16T07:58:51;0.20;;;0.20;;
27145;SDS011;17980;51.744;7.190;2024-02-16T08:01:18;0.13;;;0.10;;
27145;SDS011;17980;51.744;7.190;2024-02-16T08:03:46;0.20;;;0.20;;
27145;SDS011;17980;51.744;7.190;2024-02-16T08:06:14;0.30;;;0.30;;
27145;SDS011;17980;51.744;7.190;2024-02-16T08:08:51;3.67;;;0.37;;
27145;SDS011;17980;51.744;7.190;2024-02-16T08:11:18;1.47;;;0.40;;
27145;SDS011;17980;51.744;7.190;2024-02-16T08:13:46;0.23;;;0.20;;
27145;SDS011;17980;51.744;7.190;2024-02-16T08:16:13;0.20;;;0.20;;
27145;SDS011;17980;51.744;7.190;2024-02-16T08:18:50;0.23;;;0.23;;
27145;SDS011;17980;51.744;7.190;2024-02-16T08:21:18;0.40;;;0.30;;
27145;SDS011;17980;51.744;7.190;2024-02-16T08:26:22;0.63;;;0.20;;
27145;SDS011;17980;51.744;7.190;2024-02-16T08:28:50;0.17;;;0.17;;
27145;SDS011;17980;51.744;7.190;2024-02-16T08:31:27;0.10;;;0.10;;
27145;SDS011;17980;51.744;7.190;2024-02-16T08:33:54;0.70;;;0.30;;
27145;SDS011;17980;51.744;7.190;2024-02-16T08:36:22;0.40;;;0.30;;
27145;SDS011;17980;51.744;7.190;2024-02-16T08:38:59;0.53;;;0.20;;
27145;SDS011;17980;51.744;7.190;2024-02-16T08:41:26;0.43;;;0.30;;
27145;SDS011;17980;51.744;7.190;2024-02-16T08:43:53;0.20;;;0.17;;
27145;SDS011;17980;51.744;7.190;2024-02-16T08:46:22;0.20;;;0.10;;
27145;SDS011;17980;51.744;7.190;2024-02-16T08:48:59;0.43;;;0.30;;
27145;SDS011;17980;51.744;7.190;2024-02-16T08:51:26;0.50;;;0.23;;
27145;SDS011;17980;51.744;7.190;2024-02-16T08:53:54;0.20;;;0.20;;
27145;SDS011;17980;51.744;7.190;2024-02-16T08:56:21;0.63;;;0.40;;
27145;SDS011;17980;51.744;7.190;2024-02-16T08:58:58;0.20;;;0.20;;
27145;SDS011;17980;51.744;7.190;2024-02-16T09:01:32;0.30;;;0.30;;
27145;SDS011;17980;51.744;7.190;2024-02-16T09:03:59;0.40;;;0.20;;
27145;SDS011;17980;51.744;7.190;2024-02-16T09:06:27;2.73;;;0.20;;
27145;SDS011;17980;51.744;7.190;2024-02-16T09:09:04;0.10;;;0.10;;
27145;SDS011;17980;51.744;7.190;2024-02-16T09:11:33;0.33;;;0.23;;
27145;SDS011;17980;51.744;7.190;2024-02-16T09:14:00;0.20;;;0.20;;
27145;SDS011;17980;51.744;7.190;2024-02-16T09:16:28;0.73;;;0.63;;
27145;SDS011;17980;51.744;7.190;2024-02-16T09:19:05;0.63;;;0.40;;
27145;SDS011;17980;51.744;7.190;2024-02-16T09:21:32;0.50;;;0.33;;
27145;SDS011;17980;51.744;7.190;2024-02-16T09:23:59;0.30;;;0.23;;
27145;SDS011;17980;51.744;7.190;2024-02-16T09:29:03;0.20;;;0.20;;
27145;SDS011;17980;51.744;7.190;2024-02-16T09:31:30;0.30;;;0.30;;
27145;SDS011;17980;51.744;7.190;2024-02-16T09:33:58;1.57;;;0.40;;
27145;SDS011;17980;51.744;7.190;2024-02-16T09:36:25;0.40;;;0.30;;
27145;SDS011;17980;51.744;7.190;2024-02-16T09:39:02;0.67;;;0.37;;
27145;SDS011;17980;51.744;7.190;2024-02-16T09:41:30;2.30;;;0.37;;
27145;SDS011;17980;51.744;7.190;2024-02-16T09:44:00;0.20;;;0.20;;
27145;SDS011;17980;51.744;7.190;2024-02-16T09:46:28;0.63;;;0.40;;
27145;SDS011;17980;51.744;7.190;2024-02-16T09:49:06;0.93;;;0.40;;
27145;SDS011;17980;51.744;7.190;2024-02-16T09:51:43;0.40;;;0.37;;
27145;SDS011;17980;51.744;7.190;2024-02-16T09:56:46;0.23;;;0.20;;
27145;SDS011;17980;51.744;7.190;2024-02-16T09:59:14;1.00;;;0.67;;
27145;SDS011;17980;51.744;7.190;2024-02-16T10:01:41;0.37;;;0.30;;
27145;SDS011;17980;51.744;7.190;2024-02-16T10:04:09;0.70;;;0.20;;
27145;SDS011;17980;51.744;7.190;2024-02-16T10:06:46;0.50;;;0.37;;
27145;SDS011;17980;51.744;7.190;2024-02-16T10:09:24;2.10;;;0.50;;
27145;SDS011;17980;51.744;7.190;2024-02-16T10:11:51;0.40;;;0.37;;
27145;SDS011;17980;51.744;7.190;2024-02-16T10:14:19;0.23;;;0.23;;
27145;SDS011;17980;51.744;7.190;2024-02-16T10:17:02;0.30;;;0.27;;
27145;SDS011;17980;51.744;7.190;2024-02-16T10:19:32;1.50;;;0.63;;
27145;SDS011;17980;51.744;7.190;2024-02-16T10:22:08;0.47;;;0.40;;
27145;SDS011;17980;51.744;7.190;2024-02-16T10:24:36;0.87;;;0.20;;
27145;SDS011;17980;51.744;7.190;2024-02-16T10:27:16;0.30;;;0.30;;
27145;SDS011;17980;51.744;7.190;2024-02-16T10:29:44;0.83;;;0.30;;
27145;SDS011;17980;51.744;7.190;2024-02-16T10:32:15;0.40;;;0.30;;
27145;SDS011;17980;51.744;7.190;2024-02-16T10:37:19;0.37;;;0.30;;
27145;SDS011;17980;51.744;7.190;2024-02-16T10:39:46;1.07;;;0.40;;
27145;SDS011;17980;51.744;7.190;2024-02-16T10:42:15;0.87;;;0.47;;
27145;SDS011;17980;51.744;7.190;2024-02-16T10:44:45;1.40;;;0.50;;
27145;SDS011;17980;51.744;7.190;2024-02-16T10:47:23;0.47;;;0.47;;
27145;SDS011;17980;51.744;7.190;2024-02-16T10:49:50;0.30;;;0.30;;
27145;SDS011;17980;51.744;7.190;2024-02-16T10:52:18;1.67;;;0.33;;
27145;SDS011;17980;51.744;7.190;2024-02-16T10:54:46;0.20;;;0.20;;
27145;SDS011;17980;51.744;7.190;2024-02-16T10:57:23;1.00;;;0.40;;
27145;SDS011;17980;51.744;7.190;2024-02-16T10:59:53;0.67;;;0.43;;
27145;SDS011;17980;51.744;7.190;2024-02-16T11:02:20;0.87;;;0.40;;
27145;SDS011;17980;51.744;7.190;2024-02-16T11:04:48;1.03;;;0.30;;
27145;SDS011;17980;51.744;7.190;2024-02-16T11:07:25;0.40;;;0.40;;
27145;SDS011;17980;51.744;7.190;2024-02-16T11:09:52;0.30;;;0.30;;
27145;SDS011;17980;51.744;7.190;2024-02-16T11:12:33;0.33;;;0.23;;
27145;SDS011;17980;51.744;7.190;2024-02-16T11:15:01;0.70;;;0.40;;
27145;SDS011;17980;51.744;7.190;2024-02-16T11:17:29;0.87;;;0.40;;
27145;SDS011;17980;51.744;7.190;2024-02-16T11:19:59;0.83;;;0.60;;
27145;SDS011;17980;51.744;7.190;2024-02-16T11:22:37;0.70;;;0.57;;
27145;SDS011;17980;51.744;7.190;2024-02-16T11:25:06;0.37;;;0.27;;
27145;SDS011;17980;51.744;7.190;2024-02-16T11:27:44;0.60;;;0.50;;
27145;SDS011;17980;51.744;7.190;2024-02-16T11:30:13;0.43;;;0.30;;
27145;SDS011;17980;51.744;7.190;2024-02-16T11:32:49;0.50;;;0.37;;
27145;SDS011;17980;51.744;7.190;2024-02-16T11:35:18;0.40;;;0.40;;
27145;SDS011;17980;51.744;7.190;2024-02-16T11:37:56;1.03;;;0.60;;
27145;SDS011;17980;51.744;7.190;2024-02-16T11:40:24;0.70;;;0.60;;
27145;SDS011;17980;51.744;7.190;2024-02-16T11:42:57;0.80;;;0.80;;
27145;SDS011;17980;51.744;7.190;2024-02-16T11:45:25;0.30;;;0.30;;
27145;SDS011;17980;51.744;7.190;2024-02-16T11:48:07;0.40;;;0.40;;
27145;SDS011;17980;51.744;7.190;2024-02-16T11:50:37;0.97;;;0.57;;
27145;SDS011;17980;51.744;7.190;2024-02-16T11:53:05;1.10;;;0.70;;
27145;SDS011;17980;51.744;7.190;2024-02-16T11:55:33;0.67;;;0.30;;
27145;SDS011;17980;51.744;7.190;2024-02-16T11:58:10;0.40;;;0.40;;
27145;SDS011;17980;51.744;7.190;2024-02-16T12:00:38;0.80;;;0.50;;
27145;SDS011;17980;51.744;7.190;2024-02-16T12:03:06;1.17;;;0.67;;
27145;SDS011;17980;51.744;7.190;2024-02-16T12:05:34;0.77;;;0.50;;
27145;SDS011;17980;51.744;7.190;2024-02-16T12:08:11;0.77;;;0.50;;
27145;SDS011;17980;51.744;7.190;2024-02-16T12:10:38;0.43;;;0.43;;
27145;SDS011;17980;51.744;7.190;2024-02-16T12:13:05;1.40;;;0.50;;
27145;SDS011;17980;51.744;7.190;2024-02-16T12:15:33;0.97;;;0.57;;
27145;SDS011;17980;51.744;7.190;2024-02-16T12:18:09;0.40;;;0.40;;
27145;SDS011;17980;51.744;7.190;2024-02-16T12:20:38;2.03;;;0.93;;
27145;SDS011;17980;51.744;7.190;2024-02-16T12:23:14;0.47;;;0.47;;
27145;SDS011;17980;51.744;7.190;2024-02-16T12:25:42;0.93;;;0.50;;
27145;SDS011;17980;51.744;7.190;2024-02-16T12:28:09;0.20;;;0.20;;
27145;SDS011;17980;51.744;7.190;2024-02-16T12:30:37;1.30;;;0.60;;
27145;SDS011;17980;51.744;7.190;2024-02-16T12:33:05;1.93;;;0.70;;
27145;SDS011;17980;51.744;7.190;2024-02-16T12:35:33;0.57;;;0.57;;
27145;SDS011;17980;51.744;7.190;2024-02-16T12:38:11;0.60;;;0.60;;
27145;SDS011;17980;51.744;7.190;2024-02-16T12:40:39;1.70;;;0.60;;
27145;SDS011;17980;51.744;7.190;2024-02-16T12:43:06;1.20;;;0.50;;
27145;SDS011;17980;51.744;7.190;2024-02-16T12:45:36;0.77;;;0.40;;
27145;SDS011;17980;51.744;7.190;2024-02-16T12:48:13;0.53;;;0.50;;
27145;SDS011;17980;51.744;7.190;2024-02-16T12:50:40;2.13;;;0.83;;
27145;SDS011;17980;51.744;7.190;2024-02-16T12:53:08;0.80;;;0.43;;
27145;SDS011;17980;51.744;7.190;2024-02-16T12:55:36;1.63;;;0.73;;
27145;SDS011;17980;51.744;7.190;2024-02-16T12:58:13;0.53;;;0.53;;
27145;SDS011;17980;51.744;7.190;2024-02-16T13:00:40;0.73;;;0.70;;
27145;SDS011;17980;51.744;7.190;2024-02-16T13:03:07;2.33;;;0.80;;
27145;SDS011;17980;51.744;7.190;2024-02-16T13:05:35;1.13;;;0.50;;
27145;SDS011;17980;51.744;7.190;2024-02-16T13:08:12;0.60;;;0.60;;
27145;SDS011;17980;51.744;7.190;2024-02-16T13:10:39;1.83;;;0.60;;
27145;SDS011;17980;51.744;7.190;2024-02-16T13:13:06;0.47;;;0.47;;
27145;SDS011;17980;51.744;7.190;2024-02-16T13:15:34;0.73;;;0.47;;
27145;SDS011;17980;51.744;7.190;2024-02-16T13:18:10;3.20;;;0.80;;
27145;SDS011;17980;51.744;7.190;2024-02-16T13:20:38;1.70;;;0.60;;
27145;SDS011;17980;51.744;7.190;2024-02-16T13:23:05;1.43;;;0.83;;
27145;SDS011;17980;51.744;7.190;2024-02-16T13:25:33;4.00;;;0.70;;
27145;SDS011;17980;51.744;7.190;2024-02-16T13:28:10;0.30;;;0.30;;
27145;SDS011;17980;51.744;7.190;2024-02-16T13:30:37;1.37;;;0.40;;
27145;SDS011;17980;51.744;7.190;2024-02-16T13:35:42;0.93;;;0.50;;
27145;SDS011;17980;51.744;7.190;2024-02-16T13:38:09;0.83;;;0.70;;
27145;SDS011;17980;51.744;7.190;2024-02-16T13:40:46;0.70;;;0.63;;
27145;SDS011;17980;51.744;7.190;2024-02-16T13:43:15;0.70;;;0.60;;
27145;SDS011;17980;51.744;7.190;2024-02-16T13:48:30;0.87;;;0.70;;
27145;SDS011;17980;51.744;7.190;2024-02-16T13:50:58;1.33;;;1.23;;
27145;SDS011;17980;51.744;7.190;2024-02-16T13:53:43;1.87;;;1.20;;
27145;SDS011;17980;51.744;7.190;2024-02-16T13:56:12;1.40;;;1.30;;
27145;SDS011;17980;51.744;7.190;2024-02-16T13:58:49;2.53;;;1.20;;
27145;SDS011;17980;51.744;7.190;2024-02-16T14:01:19;2.37;;;1.20;;
27145;SDS011;17980;51.744;7.190;2024-02-16T14:03:57;1.83;;;0.93;;
27145;SDS011;17980;51.744;7.190;2024-02-16T14:06:27;0.67;;;0.60;;
27145;SDS011;17980;51.744;7.190;2024-02-16T14:09:16;1.90;;;0.70;;
27145;SDS011;17980;51.744;7.190;2024-02-16T14:11:45;0.90;;;0.87;;
27145;SDS011;17980;51.744;7.190;2024-02-16T14:14:13;1.17;;;1.07;;
27145;SDS011;17980;51.744;7.190;2024-02-16T14:16:41;1.33;;;1.10;;
27145;SDS011;17980;51.744;7.190;2024-02-16T14:19:18;0.97;;;0.87;;
27145;SDS011;17980;51.744;7.190;2024-02-16T14:21:45;1.53;;;1.17;;
27145;SDS011;17980;51.744;7.190;2024-02-16T14:24:13;1.00;;;0.83;;
27145;SDS011;17980;51.744;7.190;2024-02-16T14:26:42;1.20;;;1.07;;
27145;SDS011;17980;51.744;7.190;2024-02-16T14:29:19;1.30;;;0.77;;
27145;SDS011;17980;51.744;7.190;2024-02-16T14:31:46;0.80;;;0.80;;
27145;SDS011;17980;51.744;7.190;2024-02-16T14:34:15;1.30;;;1.17;;
27145;SDS011;17980;51.744;7.190;2024-02-16T14:36:42;1.90;;;1.40;;
27145;SDS011;17980;51.744;7.190;2024-02-16T14:39:21;1.10;;;0.77;;
27145;SDS011;17980;51.744;7.190;2024-02-16T14:41:51;1.07;;;0.97;;
27145;SDS011;17980;51.744;7.190;2024-02-16T14:44:19;1.30;;;0.70;;
27145;SDS011;17980;51.744;7.190;2024-02-16T14:46:46;3.03;;;2.13;;
27145;SDS011;17980;51.744;7.190;2024-02-16T14:49:23;2.10;;;1.90;;
27145;SDS011;17980;51.744;7.190;2024-02-16T14:51:52;3.07;;;1.47;;
27145;SDS011;17980;51.744;7.190;2024-02-16T14:54:19;3.43;;;1.53;;
27145;SDS011;17980;51.744;7.190;2024-02-16T14:56:47;1.10;;;1.00;;
27145;SDS011;17980;51.744;7.190;2024-02-16T14:59:23;2.13;;;1.00;;
27145;SDS011;17980;51.744;7.190;2024-02-16T15:01:52;0.90;;;0.60;;
27145;SDS011;17980;51.744;7.190;2024-02-16T15:04:21;0.90;;;0.80;;
27145;SDS011;17980;51.744;7.190;2024-02-16T15:07:00;1.33;;;0.97;;
27145;SDS011;17980;51.744;7.190;2024-02-16T15:09:39;1.50;;;1.20;;
27145;SDS011;17980;51.744;7.190;2024-02-16T15:12:08;1.23;;;0.73;;
27145;SDS011;17980;51.744;7.190;2024-02-16T15:14:43;1.23;;;0.87;;
27145;SDS011;17980;51.744;7.190;2024-02-16T15:17:21;0.63;;;0.57;;
27145;SDS011;17980;51.744;7.190;2024-02-16T15:19:48;1.13;;;0.77;;
27145;SDS011;17980;51.744;7.190;2024-02-16T15:22:16;0.93;;;0.63;;
27145;SDS011;17980;51.744;7.190;2024-02-16T15:24:44;0.47;;;0.47;;